ICE115 BGGH-BIKF
Flight info
| Callsign | ICE115 |
|---|---|
| Flight time | 1h 43m |
| Altitude | 37000 |
| Route | EVULO1A EVULO DCT DEVNU DCT GOKIK DCT GIRUG GIRUG4K |
| Aircraft | B38M/M-SDE1FGHILORVWXY/HB1 |
Departure
| Time | 2026-04-30 21:13 |
|---|---|
| Airport | Nuuk International Airport (BGGH) |
Arrival
| Time | 2026-04-30 22:56 |
|---|---|
| Airport | Keflavik International Airport (BIKF) |
| Time | Latitude | Longitude | Altitude | Speed | Heading |
|---|---|---|---|---|---|
| 2026-04-30 21:04 | 64.18389 | -51.67919 | 282 ft | 0 kts | 150° |
| 2026-04-30 21:06 | 64.18404 | -51.67941 | 282 ft | 4 kts | 132° |
| 2026-04-30 21:06 | 64.18414 | -51.67991 | 285 ft | 4 kts | 83° |
| 2026-04-30 21:06 | 64.18405 | -51.68044 | 286 ft | 4 kts | 45° |
| 2026-04-30 21:07 | 64.18386 | -51.68075 | 286 ft | 1 kts | 18° |
| 2026-04-30 21:07 | 64.18382 | -51.68078 | 284 ft | 0 kts | 18° |
| 2026-04-30 21:08 | 64.18385 | -51.68075 | 286 ft | 1 kts | 18° |
| 2026-04-30 21:08 | 64.18419 | -51.68051 | 287 ft | 13 kts | 18° |
| 2026-04-30 21:09 | 64.18545 | -51.67956 | 282 ft | 18 kts | 18° |
| 2026-04-30 21:09 | 64.18617 | -51.67950 | 282 ft | 6 kts | 316° |
| 2026-04-30 21:09 | 64.18638 | -51.68061 | 282 ft | 13 kts | 288° |
| 2026-04-30 21:09 | 64.18652 | -51.68213 | 283 ft | 1 kts | 255° |
| 2026-04-30 21:10 | 64.18646 | -51.68231 | 286 ft | 3 kts | 232° |
| 2026-04-30 21:10 | 64.18615 | -51.68277 | 283 ft | 9 kts | 204° |
| 2026-04-30 21:10 | 64.18525 | -51.68346 | 285 ft | 19 kts | 199° |
| 2026-04-30 21:10 | 64.18392 | -51.68446 | 284 ft | 20 kts | 198° |
| 2026-04-30 21:11 | 64.18239 | -51.68532 | 281 ft | 18 kts | 170° |
| 2026-04-30 21:11 | 64.18147 | -51.68570 | 280 ft | 7 kts | 243° |
| 2026-04-30 21:11 | 64.18161 | -51.68610 | 280 ft | 6 kts | 330° |
| 2026-04-30 21:11 | 64.18185 | -51.68602 | 281 ft | 0 kts | 16° |
| 2026-04-30 21:12 | 64.18322 | -51.68500 | 282 ft | 54 kts | 18° |
| 2026-04-30 21:12 | 64.18895 | -51.68082 | 283 ft | 115 kts | 17° |
| 2026-04-30 21:12 | 64.19776 | -51.67398 | 463 ft | 137 kts | 19° |
| 2026-04-30 21:12 | 64.20695 | -51.66918 | 820 ft | 141 kts | 7° |
| 2026-04-30 21:13 | 64.21695 | -51.66741 | 1026 ft | 149 kts | 359° |
| 2026-04-30 21:13 | 64.22675 | -51.67714 | 1267 ft | 155 kts | 321° |
| 2026-04-30 21:13 | 64.23214 | -51.69817 | 1623 ft | 155 kts | 283° |
| 2026-04-30 21:13 | 64.23116 | -51.72245 | 1912 ft | 159 kts | 247° |
| 2026-04-30 21:14 | 64.22419 | -51.73991 | 2212 ft | 144 kts | 211° |
| 2026-04-30 21:14 | 64.21449 | -51.74611 | 2429 ft | 154 kts | 184° |
| 2026-04-30 21:14 | 64.20311 | -51.74802 | 2475 ft | 172 kts | 184° |
| 2026-04-30 21:14 | 64.19054 | -51.75026 | 2575 ft | 192 kts | 184° |
| 2026-04-30 21:15 | 64.17659 | -51.75288 | 2625 ft | 208 kts | 184° |
| 2026-04-30 21:15 | 64.16211 | -51.75560 | 2871 ft | 204 kts | 184° |
| 2026-04-30 21:15 | 64.14774 | -51.75831 | 2994 ft | 214 kts | 184° |
| 2026-04-30 21:15 | 64.13330 | -51.76014 | 3372 ft | 201 kts | 175° |
| 2026-04-30 21:16 | 64.11961 | -51.74848 | 3744 ft | 212 kts | 150° |
| 2026-04-30 21:16 | 64.10659 | -51.73089 | 4156 ft | 228 kts | 149° |
| 2026-04-30 21:16 | 64.09237 | -51.71136 | 4590 ft | 246 kts | 149° |
| 2026-04-30 21:16 | 64.07744 | -51.69124 | 5044 ft | 253 kts | 150° |
| 2026-04-30 21:17 | 64.06215 | -51.67063 | 5464 ft | 256 kts | 147° |
| 2026-04-30 21:17 | 64.04989 | -51.64168 | 5985 ft | 261 kts | 120° |
| 2026-04-30 21:17 | 64.04447 | -51.60217 | 6876 ft | 266 kts | 94° |
| 2026-04-30 21:17 | 64.04709 | -51.56007 | 7696 ft | 271 kts | 76° |
| 2026-04-30 21:18 | 64.05232 | -51.51817 | 8499 ft | 277 kts | 73° |
| 2026-04-30 21:18 | 64.05795 | -51.47569 | 9308 ft | 282 kts | 72° |
| 2026-04-30 21:18 | 64.06344 | -51.43219 | 10100 ft | 288 kts | 73° |
| 2026-04-30 21:18 | 64.06894 | -51.38723 | 10651 ft | 301 kts | 74° |
| 2026-04-30 21:19 | 64.07474 | -51.34009 | 11135 ft | 315 kts | 73° |
| 2026-04-30 21:19 | 64.08091 | -51.29038 | 11547 ft | 332 kts | 73° |
| 2026-04-30 21:19 | 64.08734 | -51.23833 | 11920 ft | 349 kts | 73° |
| 2026-04-30 21:19 | 64.09434 | -51.18362 | 12335 ft | 364 kts | 69° |
| 2026-04-30 21:20 | 64.10609 | -51.13139 | 12913 ft | 373 kts | 59° |
| 2026-04-30 21:20 | 64.11983 | -51.08031 | 13574 ft | 380 kts | 57° |
| 2026-04-30 21:20 | 64.13404 | -51.02868 | 14206 ft | 386 kts | 57° |
| 2026-04-30 21:20 | 64.14805 | -50.97573 | 14825 ft | 392 kts | 58° |
| 2026-04-30 21:21 | 64.16205 | -50.92168 | 15449 ft | 397 kts | 58° |
| 2026-04-30 21:21 | 64.17638 | -50.86702 | 16087 ft | 402 kts | 57° |
| 2026-04-30 21:21 | 64.20532 | -50.75724 | 17691 ft | 401 kts | 58° |
| 2026-04-30 21:22 | 64.21962 | -50.70229 | 18454 ft | 401 kts | 58° |
| 2026-04-30 21:22 | 64.26294 | -50.53851 | 20397 ft | 401 kts | 59° |
| 2026-04-30 21:23 | 64.27640 | -50.48228 | 21021 ft | 401 kts | 58° |
| 2026-04-30 21:23 | 64.29062 | -50.42666 | 21633 ft | 402 kts | 56° |
| 2026-04-30 21:23 | 64.31978 | -50.31585 | 22754 ft | 408 kts | 57° |
| 2026-04-30 21:24 | 64.33421 | -50.25862 | 23050 ft | 418 kts | 57° |
| 2026-04-30 21:24 | 64.34910 | -50.19979 | 23215 ft | 430 kts | 57° |
| 2026-04-30 21:24 | 64.36459 | -50.13935 | 23387 ft | 442 kts | 57° |
| 2026-04-30 21:24 | 64.37996 | -50.07694 | 23635 ft | 452 kts | 63° |
| 2026-04-30 21:25 | 64.39734 | -49.93454 | 24218 ft | 468 kts | 77° |
| 2026-04-30 21:25 | 64.40386 | -49.86134 | 24584 ft | 472 kts | 77° |
| 2026-04-30 21:25 | 64.41058 | -49.78669 | 24948 ft | 476 kts | 77° |
| 2026-04-30 21:26 | 64.42456 | -49.63559 | 25705 ft | 483 kts | 77° |
| 2026-04-30 21:26 | 64.43142 | -49.55908 | 26000 ft | 488 kts | 77° |
| 2026-04-30 21:27 | 64.44520 | -49.40417 | 26737 ft | 494 kts | 77° |
| 2026-04-30 21:27 | 64.45215 | -49.32615 | 27121 ft | 497 kts | 77° |
| 2026-04-30 21:27 | 64.45907 | -49.24742 | 27480 ft | 500 kts | 78° |
| 2026-04-30 21:28 | 64.47287 | -49.08851 | 28247 ft | 504 kts | 78° |
| 2026-04-30 21:28 | 64.47974 | -49.00893 | 28738 ft | 504 kts | 78° |
| 2026-04-30 21:28 | 64.49333 | -48.84952 | 29700 ft | 504 kts | 78° |
| 2026-04-30 21:29 | 64.49997 | -48.77073 | 30329 ft | 484 kts | 78° |
| 2026-04-30 21:29 | 64.51929 | -48.53904 | 30912 ft | 493 kts | 78° |
| 2026-04-30 21:30 | 64.53216 | -48.38165 | 31485 ft | 498 kts | 78° |
| 2026-04-30 21:31 | 64.55132 | -48.14359 | 32462 ft | 504 kts | 78° |
| 2026-04-30 21:31 | 64.56403 | -47.98265 | 33155 ft | 507 kts | 79° |
| 2026-04-30 21:32 | 64.57659 | -47.82125 | 33948 ft | 508 kts | 79° |
| 2026-04-30 21:32 | 64.58282 | -47.74028 | 34281 ft | 509 kts | 79° |
| 2026-04-30 21:32 | 64.58902 | -47.65907 | 34596 ft | 509 kts | 79° |
| 2026-04-30 21:32 | 64.59518 | -47.57780 | 34873 ft | 510 kts | 79° |
| 2026-04-30 21:33 | 64.60131 | -47.49633 | 35203 ft | 511 kts | 79° |
| 2026-04-30 21:33 | 64.61346 | -47.33284 | 35890 ft | 512 kts | 79° |
| 2026-04-30 21:33 | 64.61947 | -47.25105 | 36232 ft | 512 kts | 79° |
| 2026-04-30 21:34 | 64.62543 | -47.16914 | 36578 ft | 512 kts | 79° |
| 2026-04-30 21:34 | 64.63717 | -47.00601 | 36993 ft | 503 kts | 80° |
| 2026-04-30 21:34 | 64.64291 | -46.92526 | 37017 ft | 494 kts | 80° |
| 2026-04-30 21:35 | 64.65395 | -46.76830 | 37025 ft | 494 kts | 80° |
| 2026-04-30 21:35 | 64.66491 | -46.60972 | 37019 ft | 495 kts | 80° |
| 2026-04-30 21:36 | 64.67396 | -46.47680 | 37036 ft | 494 kts | 80° |
| 2026-04-30 21:37 | 64.69509 | -46.15917 | 37060 ft | 495 kts | 81° |
| 2026-04-30 21:37 | 64.70552 | -45.99839 | 37050 ft | 495 kts | 81° |
| 2026-04-30 21:38 | 64.71586 | -45.83593 | 37051 ft | 495 kts | 81° |
| 2026-04-30 21:38 | 64.72590 | -45.67548 | 37070 ft | 495 kts | 81° |
| 2026-04-30 21:39 | 64.73570 | -45.51590 | 37059 ft | 495 kts | 81° |
| 2026-04-30 21:39 | 64.74526 | -45.35745 | 37062 ft | 494 kts | 82° |
| 2026-04-30 21:40 | 64.75470 | -45.19794 | 37054 ft | 494 kts | 82° |
| 2026-04-30 21:40 | 64.76398 | -45.03821 | 37076 ft | 499 kts | 82° |
| 2026-04-30 21:41 | 64.77331 | -44.87440 | 37066 ft | 511 kts | 82° |
| 2026-04-30 21:41 | 64.78256 | -44.70867 | 37073 ft | 513 kts | 82° |
| 2026-04-30 21:42 | 64.79163 | -44.54273 | 37094 ft | 512 kts | 82° |
| 2026-04-30 21:42 | 64.80050 | -44.37694 | 37090 ft | 512 kts | 82° |
| 2026-04-30 21:43 | 64.80918 | -44.21116 | 37084 ft | 511 kts | 83° |
| 2026-04-30 21:43 | 64.81767 | -44.04540 | 37084 ft | 511 kts | 83° |
| 2026-04-30 21:44 | 64.82601 | -43.87884 | 37074 ft | 516 kts | 83° |
| 2026-04-30 21:44 | 64.83420 | -43.71122 | 37066 ft | 517 kts | 83° |
| 2026-04-30 21:45 | 64.84222 | -43.54334 | 37070 ft | 516 kts | 83° |
| 2026-04-30 21:45 | 64.85004 | -43.37554 | 37067 ft | 515 kts | 83° |
| 2026-04-30 21:46 | 64.85757 | -43.20973 | 37055 ft | 515 kts | 83° |
| 2026-04-30 21:46 | 64.86515 | -43.03996 | 37057 ft | 515 kts | 84° |
| 2026-04-30 21:47 | 64.87234 | -42.87081 | 37067 ft | 515 kts | 83° |
| 2026-04-30 21:47 | 64.87965 | -42.69853 | 37057 ft | 515 kts | 84° |
| 2026-04-30 21:48 | 64.88554 | -42.55303 | 37051 ft | 515 kts | 84° |
| 2026-04-30 21:48 | 64.89226 | -42.38524 | 37053 ft | 515 kts | 84° |
| 2026-04-30 21:49 | 64.89874 | -42.21716 | 37027 ft | 516 kts | 84° |
| 2026-04-30 21:49 | 64.90509 | -42.04830 | 37038 ft | 520 kts | 84° |
| 2026-04-30 21:50 | 64.91147 | -41.87262 | 37041 ft | 520 kts | 84° |
| 2026-04-30 21:50 | 64.91745 | -41.70257 | 37056 ft | 521 kts | 85° |
| 2026-04-30 21:51 | 64.92323 | -41.53253 | 37055 ft | 520 kts | 85° |
| 2026-04-30 21:51 | 64.92883 | -41.36228 | 37057 ft | 520 kts | 85° |
| 2026-04-30 21:52 | 64.93422 | -41.19225 | 37055 ft | 520 kts | 85° |
| 2026-04-30 21:52 | 64.93943 | -41.02188 | 37027 ft | 521 kts | 85° |
| 2026-04-30 21:53 | 64.94444 | -40.85118 | 37009 ft | 523 kts | 85° |
| 2026-04-30 21:53 | 64.94927 | -40.68055 | 37003 ft | 525 kts | 85° |
| 2026-04-30 21:54 | 64.95392 | -40.50858 | 36994 ft | 525 kts | 85° |
| 2026-04-30 21:54 | 64.95839 | -40.33658 | 36992 ft | 525 kts | 86° |
| 2026-04-30 21:55 | 64.96267 | -40.16429 | 36979 ft | 525 kts | 86° |
| 2026-04-30 21:55 | 64.96671 | -39.99222 | 36972 ft | 525 kts | 86° |
| 2026-04-30 21:56 | 64.97059 | -39.81981 | 36984 ft | 524 kts | 86° |
| 2026-04-30 21:56 | 64.97425 | -39.64784 | 36976 ft | 524 kts | 86° |
| 2026-04-30 21:57 | 64.97771 | -39.47626 | 36959 ft | 523 kts | 86° |
| 2026-04-30 21:57 | 64.98098 | -39.30397 | 36959 ft | 525 kts | 86° |
| 2026-04-30 21:58 | 64.98405 | -39.13172 | 36956 ft | 525 kts | 87° |
| 2026-04-30 21:58 | 64.98692 | -38.95929 | 36959 ft | 525 kts | 87° |
| 2026-04-30 21:59 | 64.98960 | -38.78703 | 36963 ft | 524 kts | 87° |
| 2026-04-30 22:00 | 64.99322 | -38.52996 | 36969 ft | 524 kts | 87° |
| 2026-04-30 22:00 | 64.99641 | -38.27137 | 36972 ft | 525 kts | 88° |
| 2026-04-30 22:01 | 64.99837 | -38.09162 | 36952 ft | 525 kts | 88° |
| 2026-04-30 22:01 | 65.00004 | -37.91874 | 37003 ft | 526 kts | 88° |
| 2026-04-30 22:02 | 65.00152 | -37.74566 | 36968 ft | 526 kts | 88° |
| 2026-04-30 22:02 | 65.00280 | -37.57281 | 36968 ft | 525 kts | 88° |
| 2026-04-30 22:03 | 65.00388 | -37.40004 | 36969 ft | 525 kts | 88° |
| 2026-04-30 22:03 | 65.00475 | -37.22743 | 36967 ft | 525 kts | 89° |
| 2026-04-30 22:04 | 65.00543 | -37.05465 | 36967 ft | 525 kts | 89° |
| 2026-04-30 22:05 | 65.00607 | -36.79530 | 36963 ft | 525 kts | 89° |
| 2026-04-30 22:05 | 65.00625 | -36.62336 | 36955 ft | 527 kts | 89° |
| 2026-04-30 22:06 | 65.00630 | -36.47339 | 36957 ft | 527 kts | 89° |
| 2026-04-30 22:06 | 65.00554 | -36.20950 | 36961 ft | 527 kts | 89° |
| 2026-04-30 22:07 | 65.00558 | -36.03618 | 36958 ft | 526 kts | 90° |
| 2026-04-30 22:07 | 65.00417 | -35.86321 | 36958 ft | 525 kts | 92° |
| 2026-04-30 22:08 | 64.99964 | -35.69046 | 36961 ft | 526 kts | 94° |
| 2026-04-30 22:08 | 64.99460 | -35.51756 | 36960 ft | 527 kts | 94° |
| 2026-04-30 22:09 | 64.98957 | -35.34585 | 36948 ft | 529 kts | 94° |
| 2026-04-30 22:09 | 64.98419 | -35.17258 | 36947 ft | 529 kts | 94° |
| 2026-04-30 22:10 | 64.97865 | -34.99922 | 36953 ft | 529 kts | 94° |
| 2026-04-30 22:10 | 64.97285 | -34.82479 | 36958 ft | 529 kts | 94° |
| 2026-04-30 22:11 | 64.96384 | -34.56470 | 36939 ft | 522 kts | 94° |
| 2026-04-30 22:12 | 64.95766 | -34.39392 | 36933 ft | 522 kts | 95° |
| 2026-04-30 22:12 | 64.95133 | -34.22436 | 36931 ft | 521 kts | 95° |
| 2026-04-30 22:13 | 64.94477 | -34.05376 | 36942 ft | 524 kts | 95° |
| 2026-04-30 22:13 | 64.93800 | -33.88267 | 36938 ft | 523 kts | 95° |
| 2026-04-30 22:14 | 64.93103 | -33.71184 | 36942 ft | 523 kts | 95° |
| 2026-04-30 22:14 | 64.92388 | -33.54146 | 36932 ft | 522 kts | 95° |
| 2026-04-30 22:15 | 64.91654 | -33.37121 | 36938 ft | 521 kts | 96° |
| 2026-04-30 22:15 | 64.90886 | -33.19782 | 36940 ft | 522 kts | 96° |
| 2026-04-30 22:16 | 64.90112 | -33.02757 | 36938 ft | 523 kts | 96° |
| 2026-04-30 22:17 | 64.88508 | -32.68799 | 36940 ft | 523 kts | 96° |
| 2026-04-30 22:17 | 64.87254 | -32.43343 | 36924 ft | 521 kts | 97° |
| 2026-04-30 22:18 | 64.85958 | -32.17929 | 36927 ft | 521 kts | 97° |
| 2026-04-30 22:19 | 64.84579 | -31.91813 | 36930 ft | 530 kts | 97° |
| 2026-04-30 22:20 | 64.83333 | -31.68938 | 36929 ft | 530 kts | 97° |
| 2026-04-30 22:20 | 64.81724 | -31.40352 | 36907 ft | 531 kts | 98° |
| 2026-04-30 22:21 | 64.80891 | -31.25937 | 36914 ft | 531 kts | 98° |
| 2026-04-30 22:21 | 64.79858 | -31.08397 | 36917 ft | 531 kts | 98° |
| 2026-04-30 22:22 | 64.78827 | -30.91247 | 36909 ft | 531 kts | 98° |
| 2026-04-30 22:22 | 64.77775 | -30.74092 | 36908 ft | 531 kts | 99° |
| 2026-04-30 22:23 | 64.76704 | -30.56956 | 36918 ft | 531 kts | 99° |
| 2026-04-30 22:23 | 64.75616 | -30.39879 | 36914 ft | 529 kts | 99° |
| 2026-04-30 22:24 | 64.74510 | -30.22831 | 36914 ft | 529 kts | 99° |
| 2026-04-30 22:24 | 64.73393 | -30.05934 | 36911 ft | 529 kts | 99° |
| 2026-04-30 22:25 | 64.72248 | -29.88924 | 36911 ft | 529 kts | 99° |
| 2026-04-30 22:25 | 64.71084 | -29.71935 | 36911 ft | 529 kts | 100° |
| 2026-04-30 22:26 | 64.69302 | -29.46483 | 36910 ft | 528 kts | 100° |
| 2026-04-30 22:27 | 64.68093 | -29.29575 | 36911 ft | 527 kts | 100° |
| 2026-04-30 22:27 | 64.66242 | -29.04240 | 36890 ft | 529 kts | 101° |
| 2026-04-30 22:28 | 64.64342 | -28.78844 | 36897 ft | 529 kts | 101° |
| 2026-04-30 22:29 | 64.61742 | -28.45061 | 36899 ft | 528 kts | 101° |
| 2026-04-30 22:31 | 64.57018 | -27.86249 | 36888 ft | 527 kts | 102° |
| 2026-04-30 22:32 | 64.54883 | -27.60623 | 36745 ft | 521 kts | 102° |
| 2026-04-30 22:32 | 64.53495 | -27.44289 | 36402 ft | 512 kts | 103° |
| 2026-04-30 22:33 | 64.51403 | -27.20067 | 35634 ft | 497 kts | 103° |
| 2026-04-30 22:33 | 64.49867 | -27.04063 | 34689 ft | 502 kts | 112° |
| 2026-04-30 22:34 | 64.45981 | -26.81481 | 33755 ft | 497 kts | 114° |
| 2026-04-30 22:35 | 64.43448 | -26.66710 | 32697 ft | 498 kts | 115° |
| 2026-04-30 22:36 | 64.38013 | -26.35685 | 30575 ft | 525 kts | 115° |
| 2026-04-30 22:36 | 64.37120 | -26.30613 | 30223 ft | 524 kts | 116° |
| 2026-04-30 22:37 | 64.32796 | -26.06354 | 28291 ft | 531 kts | 116° |
| 2026-04-30 22:37 | 64.31395 | -25.98519 | 27626 ft | 526 kts | 116° |
| 2026-04-30 22:37 | 64.28549 | -25.82828 | 26216 ft | 535 kts | 116° |
| 2026-04-30 22:38 | 64.25634 | -25.66750 | 24844 ft | 525 kts | 116° |
| 2026-04-30 22:38 | 64.22777 | -25.51210 | 23595 ft | 516 kts | 117° |
| 2026-04-30 22:39 | 64.21400 | -25.43752 | 22934 ft | 512 kts | 117° |
| 2026-04-30 22:39 | 64.17247 | -25.21398 | 20893 ft | 490 kts | 117° |
| 2026-04-30 22:40 | 64.13189 | -24.99812 | 18957 ft | 470 kts | 117° |
| 2026-04-30 22:41 | 64.10894 | -24.78460 | 16936 ft | 469 kts | 86° |
| 2026-04-30 22:41 | 64.11507 | -24.66153 | 15227 ft | 467 kts | 82° |
| 2026-04-30 22:42 | 64.12383 | -24.37746 | 12957 ft | 420 kts | 85° |
| 2026-04-30 22:43 | 64.12806 | -24.24744 | 11906 ft | 399 kts | 87° |
| 2026-04-30 22:43 | 64.13138 | -24.12284 | 10825 ft | 385 kts | 86° |
| 2026-04-30 22:44 | 64.13490 | -24.00122 | 9902 ft | 379 kts | 86° |
| 2026-04-30 22:45 | 64.14121 | -23.76240 | 8755 ft | 356 kts | 87° |
| 2026-04-30 22:45 | 64.14394 | -23.65379 | 8363 ft | 327 kts | 87° |
| 2026-04-30 22:46 | 64.14641 | -23.55343 | 7980 ft | 306 kts | 87° |
| 2026-04-30 22:47 | 64.15087 | -23.36417 | 6870 ft | 287 kts | 88° |
| 2026-04-30 22:47 | 64.15282 | -23.27801 | 6466 ft | 283 kts | 88° |
| 2026-04-30 22:48 | 64.15735 | -23.18590 | 6177 ft | 280 kts | 82° |
| 2026-04-30 22:49 | 64.15723 | -23.05174 | 5759 ft | 278 kts | 87° |
| 2026-04-30 22:49 | 64.16040 | -22.92002 | 5225 ft | 273 kts | 89° |
| 2026-04-30 22:50 | 64.15895 | -22.75559 | 4584 ft | 246 kts | 109° |
| 2026-04-30 22:51 | 64.14668 | -22.68217 | 4214 ft | 241 kts | 114° |
| 2026-04-30 22:51 | 64.13430 | -22.61975 | 3710 ft | 193 kts | 143° |
| 2026-04-30 22:52 | 64.12326 | -22.60652 | 3418 ft | 175 kts | 173° |
| 2026-04-30 22:52 | 64.10024 | -22.60524 | 2818 ft | 151 kts | 184° |
| 2026-04-30 22:53 | 64.07931 | -22.60534 | 2427 ft | 149 kts | 184° |
| 2026-04-30 22:53 | 64.05863 | -22.60354 | 1933 ft | 148 kts | 187° |
| 2026-04-30 22:53 | 64.04850 | -22.60424 | 1746 ft | 141 kts | 183° |
| 2026-04-30 22:54 | 64.02892 | -22.60457 | 1245 ft | 141 kts | 188° |
| 2026-04-30 22:55 | 63.99999 | -22.60492 | 320 ft | 129 kts | 186° |
| 2026-04-30 22:55 | 63.98320 | -22.60564 | 174 ft | 80 kts | 178° |
| 2026-04-30 22:56 | 63.97808 | -22.60556 | 173 ft | 18 kts | 175° |
| 2026-04-30 22:56 | 63.97223 | -22.60534 | 167 ft | 38 kts | 181° |
| 2026-04-30 22:57 | 63.96683 | -22.60551 | 154 ft | 21 kts | 181° |
| 2026-04-30 22:57 | 63.96459 | -22.60625 | 144 ft | 7 kts | 253° |
| 2026-04-30 22:58 | 63.96486 | -22.60921 | 136 ft | 3 kts | 334° |
| 2026-04-30 22:59 | 63.96691 | -22.60942 | 140 ft | 24 kts | 359° |
| 2026-04-30 22:59 | 63.97101 | -22.60941 | 155 ft | 16 kts | 0° |